UAL2003 KIAH-KAUS
Flight info
| Callsign | UAL2003 |
|---|---|
| Flight time | 0h 32m |
| Altitude | 14000 |
| Route | PITZZ5 MNURE WLEEE7 |
| Aircraft | A320/M-SDE3FGHIRWY/LB1 |
Departure
| Time | 2026-05-05 22:43 |
|---|---|
| Airport | George Bush Intercontinental Airport (KIAH) |
Arrival
| Time | 2026-05-05 23:15 |
|---|---|
| Airport | Austin Bergstrom International Airport (KAUS) |
| Time | Latitude | Longitude | Altitude | Speed | Heading |
|---|---|---|---|---|---|
| 2026-05-05 22:13 | 29.98477 | -95.33284 | 107 ft | 0 kts | 74° |
| 2026-05-05 22:18 | 29.98477 | -95.33285 | 107 ft | 0 kts | 74° |
| 2026-05-05 22:33 | 29.98475 | -95.33294 | 107 ft | 4 kts | 71° |
| 2026-05-05 22:33 | 29.98463 | -95.33321 | 105 ft | 4 kts | 46° |
| 2026-05-05 22:33 | 29.98442 | -95.33338 | 104 ft | 4 kts | 19° |
| 2026-05-05 22:33 | 29.98422 | -95.33345 | 106 ft | 4 kts | 27° |
| 2026-05-05 22:34 | 29.98405 | -95.33364 | 107 ft | 4 kts | 83° |
| 2026-05-05 22:34 | 29.98410 | -95.33389 | 107 ft | 4 kts | 138° |
| 2026-05-05 22:34 | 29.98432 | -95.33399 | 107 ft | 4 kts | 180° |
| 2026-05-05 22:34 | 29.98444 | -95.33399 | 106 ft | 3 kts | 180° |
| 2026-05-05 22:36 | 29.98433 | -95.33399 | 107 ft | 4 kts | 180° |
| 2026-05-05 22:37 | 29.98392 | -95.33399 | 106 ft | 8 kts | 180° |
| 2026-05-05 22:37 | 29.98330 | -95.33400 | 107 ft | 10 kts | 189° |
| 2026-05-05 22:37 | 29.98300 | -95.33475 | 107 ft | 13 kts | 270° |
| 2026-05-05 22:37 | 29.98306 | -95.33591 | 107 ft | 16 kts | 277° |
| 2026-05-05 22:38 | 29.98317 | -95.33725 | 107 ft | 18 kts | 272° |
| 2026-05-05 22:38 | 29.98317 | -95.33880 | 107 ft | 20 kts | 270° |
| 2026-05-05 22:38 | 29.98340 | -95.34036 | 107 ft | 17 kts | 296° |
| 2026-05-05 22:38 | 29.98376 | -95.34161 | 107 ft | 18 kts | 271° |
| 2026-05-05 22:39 | 29.98376 | -95.34312 | 107 ft | 20 kts | 270° |
| 2026-05-05 22:39 | 29.98376 | -95.34481 | 107 ft | 22 kts | 270° |
| 2026-05-05 22:39 | 29.98377 | -95.34670 | 107 ft | 24 kts | 271° |
| 2026-05-05 22:39 | 29.98379 | -95.34874 | 107 ft | 27 kts | 270° |
| 2026-05-05 22:40 | 29.98379 | -95.35066 | 107 ft | 21 kts | 269° |
| 2026-05-05 22:40 | 29.98382 | -95.35209 | 107 ft | 14 kts | 272° |
| 2026-05-05 22:40 | 29.98370 | -95.35303 | 107 ft | 9 kts | 283° |
| 2026-05-05 22:40 | 29.98425 | -95.35354 | 107 ft | 12 kts | 328° |
| 2026-05-05 22:41 | 29.98506 | -95.35402 | 106 ft | 15 kts | 333° |
| 2026-05-05 22:41 | 29.98608 | -95.35462 | 107 ft | 17 kts | 333° |
| 2026-05-05 22:41 | 29.98719 | -95.35530 | 106 ft | 19 kts | 332° |
| 2026-05-05 22:41 | 29.98820 | -95.35593 | 107 ft | 12 kts | 324° |
| 2026-05-05 22:42 | 29.98829 | -95.35681 | 106 ft | 13 kts | 244° |
| 2026-05-05 22:42 | 29.98788 | -95.35768 | 109 ft | 7 kts | 240° |
| 2026-05-05 22:42 | 29.98749 | -95.35766 | 109 ft | 7 kts | 153° |
| 2026-05-05 22:42 | 29.98579 | -95.35661 | 108 ft | 60 kts | 152° |
| 2026-05-05 22:43 | 29.98025 | -95.35322 | 108 ft | 117 kts | 152° |
| 2026-05-05 22:43 | 29.97165 | -95.34804 | 111 ft | 160 kts | 153° |
| 2026-05-05 22:43 | 29.96191 | -95.34193 | 688 ft | 161 kts | 155° |
| 2026-05-05 22:43 | 29.95111 | -95.33948 | 1209 ft | 164 kts | 195° |
| 2026-05-05 22:44 | 29.94177 | -95.34687 | 1818 ft | 170 kts | 227° |
| 2026-05-05 22:44 | 29.93429 | -95.35833 | 2088 ft | 193 kts | 227° |
| 2026-05-05 22:44 | 29.92536 | -95.37140 | 2338 ft | 221 kts | 228° |
| 2026-05-05 22:44 | 29.91529 | -95.38607 | 2771 ft | 244 kts | 229° |
| 2026-05-05 22:45 | 29.90457 | -95.40172 | 3596 ft | 249 kts | 230° |
| 2026-05-05 22:45 | 29.89378 | -95.41762 | 4472 ft | 255 kts | 230° |
| 2026-05-05 22:45 | 29.88310 | -95.43423 | 4903 ft | 262 kts | 236° |
| 2026-05-05 22:45 | 29.87360 | -95.45223 | 5730 ft | 263 kts | 238° |
| 2026-05-05 22:46 | 29.86438 | -95.47059 | 6517 ft | 265 kts | 239° |
| 2026-05-05 22:46 | 29.85521 | -95.48913 | 7240 ft | 267 kts | 239° |
| 2026-05-05 22:46 | 29.84598 | -95.50797 | 7951 ft | 272 kts | 240° |
| 2026-05-05 22:46 | 29.83681 | -95.52706 | 8705 ft | 274 kts | 240° |
| 2026-05-05 22:47 | 29.82876 | -95.54706 | 9445 ft | 278 kts | 251° |
| 2026-05-05 22:47 | 29.82562 | -95.56923 | 10130 ft | 284 kts | 267° |
| 2026-05-05 22:47 | 29.82793 | -95.59249 | 10479 ft | 305 kts | 279° |
| 2026-05-05 22:47 | 29.83259 | -95.61719 | 10707 ft | 323 kts | 279° |
| 2026-05-05 22:48 | 29.83747 | -95.64275 | 11227 ft | 329 kts | 280° |
| 2026-05-05 22:48 | 29.84234 | -95.66862 | 11886 ft | 331 kts | 279° |
| 2026-05-05 22:48 | 29.84713 | -95.69453 | 12604 ft | 331 kts | 279° |
| 2026-05-05 22:48 | 29.85183 | -95.72018 | 13311 ft | 331 kts | 279° |
| 2026-05-05 22:49 | 29.85660 | -95.74617 | 13805 ft | 332 kts | 279° |
| 2026-05-05 22:49 | 29.86140 | -95.77215 | 13952 ft | 331 kts | 279° |
| 2026-05-05 22:49 | 29.86621 | -95.79828 | 13997 ft | 336 kts | 279° |
| 2026-05-05 22:49 | 29.87103 | -95.82465 | 14006 ft | 337 kts | 279° |
| 2026-05-05 22:50 | 29.87573 | -95.85113 | 14010 ft | 337 kts | 278° |
| 2026-05-05 22:50 | 29.88027 | -95.87763 | 14006 ft | 337 kts | 278° |
| 2026-05-05 22:50 | 29.88477 | -95.90413 | 14006 ft | 337 kts | 278° |
| 2026-05-05 22:50 | 29.88927 | -95.93057 | 14008 ft | 337 kts | 278° |
| 2026-05-05 22:51 | 29.89378 | -95.95704 | 14001 ft | 337 kts | 278° |
| 2026-05-05 22:51 | 29.89828 | -95.98351 | 13993 ft | 337 kts | 278° |
| 2026-05-05 22:51 | 29.90282 | -96.00998 | 13984 ft | 337 kts | 278° |
| 2026-05-05 22:51 | 29.90739 | -96.03646 | 13976 ft | 337 kts | 278° |
| 2026-05-05 22:52 | 29.91198 | -96.06295 | 13968 ft | 337 kts | 278° |
| 2026-05-05 22:52 | 29.91654 | -96.08945 | 13936 ft | 337 kts | 278° |
| 2026-05-05 22:52 | 29.92113 | -96.11595 | 13923 ft | 337 kts | 278° |
| 2026-05-05 22:52 | 29.92568 | -96.14248 | 13915 ft | 337 kts | 278° |
| 2026-05-05 22:53 | 29.93020 | -96.16904 | 13898 ft | 338 kts | 278° |
| 2026-05-05 22:53 | 29.93472 | -96.19563 | 13883 ft | 338 kts | 278° |
| 2026-05-05 22:53 | 29.93772 | -96.21325 | 13874 ft | 338 kts | 278° |
| 2026-05-05 22:53 | 29.94209 | -96.23979 | 13855 ft | 338 kts | 278° |
| 2026-05-05 22:54 | 29.94631 | -96.26645 | 13836 ft | 338 kts | 277° |
| 2026-05-05 22:54 | 29.95048 | -96.29308 | 13836 ft | 337 kts | 277° |
| 2026-05-05 22:54 | 29.95465 | -96.31972 | 13833 ft | 338 kts | 277° |
| 2026-05-05 22:54 | 29.95882 | -96.34638 | 13831 ft | 338 kts | 277° |
| 2026-05-05 22:55 | 29.96297 | -96.37304 | 13847 ft | 337 kts | 277° |
| 2026-05-05 22:55 | 29.96711 | -96.39964 | 13856 ft | 337 kts | 277° |
| 2026-05-05 22:55 | 29.97125 | -96.42624 | 13853 ft | 336 kts | 277° |
| 2026-05-05 22:55 | 29.97537 | -96.45269 | 13857 ft | 336 kts | 277° |
| 2026-05-05 22:56 | 29.97954 | -96.47923 | 13853 ft | 335 kts | 277° |
| 2026-05-05 22:56 | 29.98368 | -96.50562 | 13850 ft | 335 kts | 277° |
| 2026-05-05 22:56 | 29.98777 | -96.53174 | 13849 ft | 335 kts | 277° |
| 2026-05-05 22:56 | 29.99188 | -96.55815 | 13866 ft | 335 kts | 277° |
| 2026-05-05 22:57 | 29.99616 | -96.58454 | 13862 ft | 335 kts | 278° |
| 2026-05-05 22:57 | 30.00085 | -96.61056 | 13862 ft | 335 kts | 279° |
| 2026-05-05 22:57 | 30.00589 | -96.63714 | 13862 ft | 335 kts | 279° |
| 2026-05-05 22:57 | 30.01093 | -96.66335 | 13879 ft | 335 kts | 279° |
| 2026-05-05 22:58 | 30.01597 | -96.68960 | 13891 ft | 335 kts | 279° |
| 2026-05-05 22:58 | 30.02097 | -96.71585 | 13917 ft | 335 kts | 279° |
| 2026-05-05 22:58 | 30.02590 | -96.74210 | 13930 ft | 335 kts | 279° |
| 2026-05-05 22:58 | 30.03078 | -96.76835 | 13944 ft | 335 kts | 279° |
| 2026-05-05 22:59 | 30.03560 | -96.79468 | 13954 ft | 335 kts | 279° |
| 2026-05-05 22:59 | 30.04040 | -96.82089 | 13967 ft | 335 kts | 279° |
| 2026-05-05 22:59 | 30.04521 | -96.84720 | 13989 ft | 335 kts | 279° |
| 2026-05-05 22:59 | 30.05038 | -96.87332 | 13960 ft | 331 kts | 283° |
| 2026-05-05 23:00 | 30.06514 | -96.92236 | 13359 ft | 317 kts | 285° |
| 2026-05-05 23:00 | 30.07239 | -96.94618 | 13017 ft | 311 kts | 285° |
| 2026-05-05 23:00 | 30.07937 | -96.96918 | 12744 ft | 304 kts | 285° |
| 2026-05-05 23:01 | 30.08628 | -96.99203 | 12424 ft | 300 kts | 285° |
| 2026-05-05 23:01 | 30.09310 | -97.01468 | 12105 ft | 296 kts | 285° |
| 2026-05-05 23:01 | 30.09980 | -97.03712 | 11794 ft | 295 kts | 285° |
| 2026-05-05 23:01 | 30.10647 | -97.05952 | 11476 ft | 295 kts | 285° |
| 2026-05-05 23:02 | 30.11313 | -97.08176 | 11146 ft | 292 kts | 285° |
| 2026-05-05 23:02 | 30.11972 | -97.10381 | 10811 ft | 289 kts | 285° |
| 2026-05-05 23:02 | 30.12626 | -97.12568 | 10480 ft | 287 kts | 285° |
| 2026-05-05 23:02 | 30.13274 | -97.14745 | 10151 ft | 286 kts | 285° |
| 2026-05-05 23:03 | 30.13919 | -97.16909 | 9825 ft | 284 kts | 285° |
| 2026-05-05 23:03 | 30.14564 | -97.19059 | 9482 ft | 283 kts | 285° |
| 2026-05-05 23:03 | 30.15205 | -97.21199 | 9123 ft | 281 kts | 285° |
| 2026-05-05 23:03 | 30.15842 | -97.23326 | 8770 ft | 279 kts | 285° |
| 2026-05-05 23:04 | 30.16471 | -97.25432 | 8419 ft | 273 kts | 285° |
| 2026-05-05 23:04 | 30.17084 | -97.27484 | 8076 ft | 270 kts | 285° |
| 2026-05-05 23:04 | 30.17723 | -97.29531 | 7750 ft | 272 kts | 288° |
| 2026-05-05 23:04 | 30.18429 | -97.31522 | 7413 ft | 267 kts | 289° |
| 2026-05-05 23:05 | 30.19158 | -97.33457 | 7076 ft | 257 kts | 290° |
| 2026-05-05 23:05 | 30.19869 | -97.35314 | 6778 ft | 252 kts | 290° |
| 2026-05-05 23:05 | 30.20578 | -97.37181 | 6446 ft | 254 kts | 290° |
| 2026-05-05 23:05 | 30.21278 | -97.39049 | 6157 ft | 250 kts | 291° |
| 2026-05-05 23:06 | 30.21984 | -97.40868 | 5896 ft | 247 kts | 292° |
| 2026-05-05 23:06 | 30.22710 | -97.42660 | 5626 ft | 246 kts | 292° |
| 2026-05-05 23:06 | 30.23442 | -97.44451 | 5359 ft | 247 kts | 292° |
| 2026-05-05 23:06 | 30.24175 | -97.46251 | 5096 ft | 248 kts | 291° |
| 2026-05-05 23:07 | 30.24906 | -97.48059 | 4835 ft | 249 kts | 291° |
| 2026-05-05 23:07 | 30.25636 | -97.49878 | 4574 ft | 250 kts | 291° |
| 2026-05-05 23:07 | 30.26370 | -97.51706 | 4305 ft | 251 kts | 291° |
| 2026-05-05 23:07 | 30.27115 | -97.53525 | 4016 ft | 250 kts | 296° |
| 2026-05-05 23:08 | 30.28204 | -97.55079 | 3719 ft | 246 kts | 315° |
| 2026-05-05 23:08 | 30.29475 | -97.56306 | 3447 ft | 239 kts | 323° |
| 2026-05-05 23:08 | 30.30994 | -97.57110 | 3161 ft | 243 kts | 343° |
| 2026-05-05 23:08 | 30.32678 | -97.57312 | 2861 ft | 245 kts | 358° |
| 2026-05-05 23:09 | 30.34381 | -97.57361 | 2582 ft | 244 kts | 358° |
| 2026-05-05 23:09 | 30.36064 | -97.57443 | 2479 ft | 239 kts | 351° |
| 2026-05-05 23:09 | 30.37588 | -97.58119 | 2490 ft | 235 kts | 317° |
| 2026-05-05 23:09 | 30.38524 | -97.59554 | 2487 ft | 215 kts | 283° |
| 2026-05-05 23:10 | 30.38855 | -97.61215 | 2496 ft | 211 kts | 274° |
| 2026-05-05 23:10 | 30.39076 | -97.62894 | 2490 ft | 211 kts | 272° |
| 2026-05-05 23:10 | 30.39290 | -97.64593 | 2491 ft | 213 kts | 271° |
| 2026-05-05 23:10 | 30.39380 | -97.66278 | 2492 ft | 207 kts | 262° |
| 2026-05-05 23:11 | 30.38879 | -97.67743 | 2484 ft | 190 kts | 218° |
| 2026-05-05 23:11 | 30.37753 | -97.68247 | 2489 ft | 177 kts | 182° |
| 2026-05-05 23:11 | 30.36516 | -97.68280 | 2500 ft | 178 kts | 181° |
| 2026-05-05 23:11 | 30.35284 | -97.68284 | 2487 ft | 175 kts | 180° |
| 2026-05-05 23:12 | 30.34085 | -97.68265 | 2479 ft | 169 kts | 179° |
| 2026-05-05 23:12 | 30.32912 | -97.68238 | 2487 ft | 170 kts | 179° |
| 2026-05-05 23:12 | 30.31735 | -97.68208 | 2435 ft | 168 kts | 179° |
| 2026-05-05 23:12 | 30.30568 | -97.68179 | 2283 ft | 168 kts | 179° |
| 2026-05-05 23:13 | 30.29408 | -97.68148 | 2076 ft | 164 kts | 179° |
| 2026-05-05 23:13 | 30.28314 | -97.68119 | 1868 ft | 151 kts | 178° |
| 2026-05-05 23:13 | 30.27305 | -97.68093 | 1691 ft | 140 kts | 179° |
| 2026-05-05 23:13 | 30.26348 | -97.68068 | 1503 ft | 134 kts | 180° |
| 2026-05-05 23:14 | 30.25445 | -97.68047 | 1326 ft | 125 kts | 179° |
| 2026-05-05 23:14 | 30.24558 | -97.68015 | 1109 ft | 128 kts | 175° |
| 2026-05-05 23:14 | 30.23656 | -97.67995 | 981 ft | 132 kts | 175° |
| 2026-05-05 23:14 | 30.22719 | -97.67973 | 855 ft | 137 kts | 178° |
| 2026-05-05 23:15 | 30.21771 | -97.67952 | 673 ft | 135 kts | 175° |
| 2026-05-05 23:15 | 30.20871 | -97.67925 | 530 ft | 121 kts | 179° |
| 2026-05-05 23:15 | 30.20179 | -97.67906 | 515 ft | 75 kts | 179° |
| 2026-05-05 23:15 | 30.19934 | -97.67881 | 507 ft | 18 kts | 154° |
| 2026-05-05 23:16 | 30.19885 | -97.67777 | 506 ft | 16 kts | 94° |
| 2026-05-05 23:16 | 30.19887 | -97.67636 | 505 ft | 19 kts | 89° |
| 2026-05-05 23:16 | 30.19891 | -97.67476 | 505 ft | 21 kts | 88° |
| 2026-05-05 23:16 | 30.19900 | -97.67360 | 506 ft | 11 kts | 69° |
| 2026-05-05 23:17 | 30.19960 | -97.67333 | 509 ft | 10 kts | 358° |
| 2026-05-05 23:17 | 30.20028 | -97.67335 | 510 ft | 10 kts | 358° |
| 2026-05-05 23:17 | 30.20084 | -97.67306 | 512 ft | 10 kts | 59° |
| 2026-05-05 23:17 | 30.20136 | -97.67254 | 512 ft | 11 kts | 6° |
| 2026-05-05 23:18 | 30.20220 | -97.67256 | 513 ft | 12 kts | 359° |
| 2026-05-05 23:18 | 30.20276 | -97.67258 | 514 ft | 6 kts | 0° |
| 2026-05-05 23:18 | 30.20316 | -97.67232 | 515 ft | 7 kts | 57° |
| 2026-05-05 23:18 | 30.20322 | -97.67164 | 515 ft | 10 kts | 90° |
| 2026-05-05 23:19 | 30.20324 | -97.67068 | 514 ft | 13 kts | 87° |
| 2026-05-05 23:19 | 30.20318 | -97.67000 | 514 ft | 7 kts | 123° |
| 2026-05-05 23:19 | 30.20271 | -97.66968 | 514 ft | 6 kts | 151° |
| 2026-05-05 23:19 | 30.20266 | -97.66965 | 514 ft | 0 kts | 150° |